Elizabeth Anne — WDI5309 — position and weather

sailwx.info

Track history (hours):
 
Tides and Currents Weather Stations Pressure Air Temp Water Temp Dewpoint Dewpoint Depression Visibility Wind Speed Wind Dir Waves Ship Positions

Elizabeth Anne

Owner: Vane Line Bunkering, Inc., Philadelphia, PA. More information available from US FCC via Universal Licensing System and Coast Guard Vessel Documentation Center.

Last reported at 2018-Jul-15 20:29 UTC. Time now 2018-Jul-15 20:50 UTC.
Position N 40°39' W 074°06'.

; draft 5 m.

Type: Tug. MMSI: 369008000.

Date/timePositionNaut miles runAvg speedWind from/ knotsBaromVisibWave heightAir tempDewpointWater temp
2018-Jul-15 20:29N 40°39' W 074°06'0 0.5
2018-Jul-15 20:00N 40°39' W 074°06'1 1.3
2018-Jul-15 19:30N 40°39' W 074°05'2 4.5
2018-Jul-15 19:00N 40°40' W 074°03'2 3.5
2018-Jul-15 18:30N 40°39' W 074°05'1 1.1
2018-Jul-15 18:00N 40°39' W 074°05'2 4.4
2018-Jul-15 17:30N 40°40' W 074°03'0 0.4
2018-Jul-15 17:00N 40°40' W 074°03'3 6.2
2018-Jul-15 16:30N 40°39' W 074°06'0 0.0
2018-Jul-15 16:00N 40°39' W 074°06'0 0.0
2018-Jul-15 15:30N 40°39' W 074°06'0 0.0
2018-Jul-15 14:59N 40°39' W 074°06'1 1.1
2018-Jul-15 14:30N 40°39' W 074°06'0 0.1
2018-Jul-15 14:00N 40°39' W 074°06'0 0.0
2018-Jul-15 13:30N 40°39' W 074°06'0 0.0
2018-Jul-15 13:00N 40°39' W 074°06'0 0.0
2018-Jul-15 12:30N 40°39' W 074°06'0 0.0
2018-Jul-15 12:00N 40°39' W 074°06'0 0.0
2018-Jul-15 11:30N 40°39' W 074°06'0 0.0
2018-Jul-15 11:00N 40°39' W 074°06'0 0.0
2018-Jul-15 10:30N 40°39' W 074°06'0 0.0
2018-Jul-15 10:00N 40°39' W 074°06'0 0.0
2018-Jul-15 09:31N 40°39' W 074°06'0 0.0
2018-Jul-15 09:00N 40°39' W 074°06'0 0.0
2018-Jul-15 08:30N 40°39' W 074°06'0 0.0
2018-Jul-15 08:01N 40°39' W 074°06'0 0.0
2018-Jul-15 07:30N 40°39' W 074°06'0 0.0
2018-Jul-15 07:01N 40°39' W 074°06'0 0.0
2018-Jul-15 06:31N 40°39' W 074°06'0 0.0
2018-Jul-15 06:01N 40°39' W 074°06'0 0.0
2018-Jul-15 05:30N 40°39' W 074°06'0 0.0
2018-Jul-15 05:01N 40°39' W 074°06'0 0.0
2018-Jul-15 04:29N 40°39' W 074°06'0 0.0
2018-Jul-15 04:00N 40°39' W 074°06'0 0.0
2018-Jul-15 03:30N 40°39' W 074°06'0 0.0
2018-Jul-15 03:00N 40°39' W 074°06'0 0.0
2018-Jul-15 02:25N 40°39' W 074°06'0 0.0
2018-Jul-15 02:01N 40°39' W 074°06'0 0.0
2018-Jul-15 01:31N 40°39' W 074°06'0 0.0
2018-Jul-15 01:00N 40°39' W 074°06'0 0.0
2018-Jul-15 00:31N 40°39' W 074°06'0 0.0
2018-Jul-15 00:01N 40°39' W 074°06'0 0.0
2018-Jul-14 23:31N 40°39' W 074°06'0 0.0
2018-Jul-14 23:01N 40°39' W 074°06'0 0.0
2018-Jul-14 22:31N 40°39' W 074°06'0 0.0
2018-Jul-14 22:01N 40°39' W 074°06'0 0.0
2018-Jul-14 21:31N 40°39' W 074°06'0 0.1
2018-Jul-14 21:00N 40°39' W 074°06'1 1.1
2018-Jul-14 20:31N 40°39' W 074°07'2 3.2
2018-Jul-14 20:01N 40°39' W 074°04'2 3.1
2018-Jul-14 19:31N 40°40' W 074°03'1 2.2
2018-Jul-14 19:01N 40°40' W 074°02'1 1.7
2018-Jul-14 18:30N 40°40' W 074°00'0 0.0
2018-Jul-14 18:00N 40°40' W 074°00'0 0.0
2018-Jul-14 17:30N 40°40' W 074°00'0 0.0
2018-Jul-14 17:00N 40°40' W 074°00'0 0.0
2018-Jul-14 16:30N 40°40' W 074°00'0 0.0
2018-Jul-14 16:01N 40°40' W 074°00'0 0.0
2018-Jul-14 15:30N 40°40' W 074°00'0 0.0
2018-Jul-14 15:01N 40°40' W 074°00'0 0.0
2018-Jul-14 14:31N 40°40' W 074°00'0 0.0
2018-Jul-14 13:30N 40°40' W 074°00'0 0.0
2018-Jul-14 13:01N 40°40' W 074°00'0 0.0
2018-Jul-14 12:30N 40°40' W 074°00'0 0.0
2018-Jul-14 12:01N 40°40' W 074°00'0 0.0
2018-Jul-14 11:31N 40°40' W 074°00'0 0.0
2018-Jul-14 11:01N 40°40' W 074°00'0 0.5
2018-Jul-14 10:31N 40°40' W 074°00'0 0.1
2018-Jul-14 10:01N 40°40' W 074°00'0 0.0
2018-Jul-14 09:30N 40°40' W 074°00'1 1.5
2018-Jul-14 09:00N 40°40' W 074°01'1 2.2
2018-Jul-14 08:31N 40°41' W 074°02'4 8.2
2018-Jul-14 08:01N 40°45' W 074°01'612.5
2018-Jul-14 07:30N 40°50' W 073°57'611.5
2018-Jul-14 07:00N 40°56' W 073°55'610.9
2018-Jul-14 06:27N 41°02' W 073°53'15 0.4
2018-Jul-12 15:27N 40°47' W 073°59'3 7.7
2018-Jul-12 15:01N 40°44' W 074°01'4 8.1
2018-Jul-12 14:31N 40°40' W 074°03'4 7.9
2018-Jul-12 14:00N 40°39' W 074°07'4 7.3
2018-Jul-12 13:30N 40°38' W 074°12'5 2.6
2018-Jul-12 11:44N 40°33' W 074°14'2 0.4
2018-Jul-12 06:11N 40°35' W 074°12'3 2.1
2018-Jul-12 04:43N 40°38' W 074°11'1 4.3
2018-Jul-12 04:27N 40°39' W 074°10'2 4.4
2018-Jul-12 04:01N 40°39' W 074°07'0 0.9
2018-Jul-12 03:31N 40°39' W 074°07'0 0.1
2018-Jul-12 03:01N 40°39' W 074°07'1 1.8
2018-Jul-12 02:31N 40°39' W 074°06'0 0.0
2018-Jul-12 02:01N 40°39' W 074°06'0 0.0
2018-Jul-12 01:31N 40°39' W 074°06'0 0.0
2018-Jul-12 01:00N 40°39' W 074°06'0 0.0
2018-Jul-12 00:30N 40°39' W 074°06'0 0.0
2018-Jul-12 00:01N 40°39' W 074°06'1 1.9
2018-Jul-11 23:30N 40°39' W 074°07'4 8.0
2018-Jul-11 23:00N 40°37' W 074°12'0 0.2
2018-Jul-11 20:50N 40°38' W 074°12'3 6.6
2018-Jul-11 20:27N 40°39' W 074°09'4 8.0
2018-Jul-11 20:01N 40°39' W 074°04'4 8.1
2018-Jul-11 19:31N 40°42' W 074°00'3 6.0
2018-Jul-11 19:00N 40°44' W 073°58'56 2.6
2018-Jul-10 21:14N 41°14' W 072°55'3 5.3
2018-Jul-10 20:38N 41°12' W 072°52'0 0.0
2018-Jul-10 14:00N 41°12' W 072°52'0 0.0
2018-Jul-10 13:29N 41°12' W 072°52'0 0.0
2018-Jul-10 13:00N 41°12' W 072°52'0 0.0
2018-Jul-10 12:30N 41°12' W 072°52'0 0.0
2018-Jul-10 12:00N 41°12' W 072°52'0 0.0
2018-Jul-10 11:30N 41°12' W 072°52'0 0.0
2018-Jul-10 11:00N 41°12' W 072°52'0 0.0
2018-Jul-10 10:29N 41°12' W 072°52'0 0.0
2018-Jul-10 09:54N 41°12' W 072°52'0 0.0
2018-Jul-10 09:28N 41°12' W 072°52'0 0.0
2018-Jul-10 08:54N 41°12' W 072°52'0 0.0
2018-Jul-10 08:12N 41°12' W 072°52'0 0.3
2018-Jul-10 07:59N 41°12' W 072°52'0 0.0
2018-Jul-10 00:00N 41°12' W 072°53'0 0.1
2018-Jul-09 23:30N 41°12' W 072°52'0 0.1
2018-Jul-09 22:53N 41°12' W 072°53'0 0.0
2018-Jul-09 22:30N 41°12' W 072°53'0 0.0
2018-Jul-09 21:58N 41°12' W 072°53'0 0.0
2018-Jul-09 21:28N 41°12' W 072°53'0 0.0
2018-Jul-09 21:00N 41°12' W 072°53'0 0.2
2018-Jul-09 20:30N 41°12' W 072°52'0 0.1
2018-Jul-09 20:00N 41°12' W 072°52'0 0.0
2018-Jul-09 19:29N 41°12' W 072°52'18 1.8
2018-Jul-09 09:27N 41°04' W 073°13'4 7.4
2018-Jul-09 08:58N 41°02' W 073°17'35 7.7
2018-Jul-09 04:27N 40°46' W 073°57'3 6.6
2018-Jul-09 04:01N 40°43' W 073°58'3 6.0
2018-Jul-09 03:31N 40°41' W 074°01'1 2.4
2018-Jul-09 03:01N 40°40' W 074°02'0 0.0
2018-Jul-09 02:30N 40°40' W 074°02'0 0.1
2018-Jul-09 02:01N 40°40' W 074°02'0 0.1
2018-Jul-09 01:31N 40°40' W 074°02'0 0.0
2018-Jul-09 01:01N 40°40' W 074°02'0 0.3
2018-Jul-09 00:31N 40°40' W 074°03'0 0.2
2018-Jul-09 00:00N 40°40' W 074°02'0 0.1
2018-Jul-08 23:31N 40°40' W 074°02'0 0.1
2018-Jul-08 23:01N 40°40' W 074°02'2 4.8
2018-Jul-08 22:30N 40°39' W 074°05'4 8.1
2018-Jul-08 22:00N 40°39' W 074°10'1 0.2
2018-Jul-08 16:42N 40°38' W 074°12'2 8.2
2018-Jul-08 16:30N 40°39' W 074°10'5 9.7
2018-Jul-08 16:00N 40°40' W 074°03'0 0.4
2018-Jul-08 15:30N 40°40' W 074°03'2 3.3
2018-Jul-08 15:00N 40°39' W 074°05'0 0.6
2018-Jul-08 14:30N 40°39' W 074°05'1 0.3
2018-Jul-08 12:26N 40°39' W 074°06'0 0.0
2018-Jul-08 11:59N 40°39' W 074°06'0 0.0
2018-Jul-08 11:29N 40°39' W 074°06'0 0.0
2018-Jul-08 10:59N 40°39' W 074°06'0 0.0
2018-Jul-08 10:29N 40°39' W 074°06'0 0.0
2018-Jul-08 09:59N 40°39' W 074°06'0 0.0
2018-Jul-08 09:31N 40°39' W 074°06'0 0.0
2018-Jul-08 09:00N 40°39' W 074°06'2 4.1
2018-Jul-08 08:30N 40°40' W 074°03'1 1.9
2018-Jul-08 08:01N 40°41' W 074°03'3 5.6
2018-Jul-08 07:30N 40°39' W 074°06'2 4.6
2018-Jul-08 07:01N 40°40' W 074°08'1 1.5
2018-Jul-08 06:31N 40°41' W 074°09'3 5.9
2018-Jul-08 06:01N 40°39' W 074°11'5 1.7
2018-Jul-08 03:12N 40°34' W 074°13'4 9.2
2018-Jul-08 02:46N 40°38' W 074°12'2 8.6
2018-Jul-08 02:30N 40°39' W 074°10'4 7.8
2018-Jul-08 02:01N 40°39' W 074°05'3 5.6
2018-Jul-08 01:31N 40°40' W 074°01'0 0.1
2018-Jul-08 01:01N 40°40' W 074°01'1 1.5
2018-Jul-08 00:31N 40°40' W 074°00'0 0.0
2018-Jul-08 00:01N 40°40' W 074°00'0 0.0
2018-Jul-07 23:30N 40°40' W 074°00'0 0.0
2018-Jul-07 23:01N 40°40' W 074°00'0 0.0
2018-Jul-07 22:30N 40°40' W 074°00'0 0.0
2018-Jul-07 22:00N 40°40' W 074°00'0 0.0
2018-Jul-07 21:31N 40°40' W 074°00'0 0.0
2018-Jul-07 21:00N 40°40' W 074°00'0 0.3
2018-Jul-07 20:30N 40°40' W 074°00'4 7.4
2018-Jul-07 20:00N 40°39' W 074°05'3 5.6
2018-Jul-07 19:30N 40°40' W 074°09'1 2.0
2018-Jul-07 19:01N 40°41' W 074°09'1 2.5
2018-Jul-07 18:31N 40°40' W 074°09'2 3.4
2018-Jul-07 18:00N 40°39' W 074°06'1 1.2
2018-Jul-07 17:30N 40°39' W 074°06'0 0.0
2018-Jul-07 17:00N 40°39' W 074°06'0 0.0
2018-Jul-07 16:30N 40°39' W 074°06'0 0.0
2018-Jul-07 16:00N 40°39' W 074°06'0 0.0
2018-Jul-07 15:30N 40°39' W 074°06'0 0.0
2018-Jul-07 15:00N 40°39' W 074°06'0 0.0
2018-Jul-07 14:31N 40°39' W 074°06'0 0.9
2018-Jul-07 14:00N 40°39' W 074°06'1 1.7
2018-Jul-07 13:30N 40°39' W 074°07'2 4.6
2018-Jul-07 13:00N 40°41' W 074°09'1 0.1
2018-Jul-07 00:31N 40°41' W 074°09'0 1.7
2018-Jul-07 00:25N 40°41' W 074°09'0 0.6
2018-Jul-07 00:00N 40°41' W 074°09'1 2.4
2018-Jul-06 23:30N 40°40' W 074°08'3 5.6
2018-Jul-06 23:00N 40°39' W 074°05'4 7.6
2018-Jul-06 22:31N 40°40' W 074°00'1 1.4
2018-Jul-06 22:00N 40°40' W 074°01'0 0.0
2018-Jul-06 21:30N 40°40' W 074°01'0 0.0
2018-Jul-06 21:00N 40°40' W 074°01'0 0.1
2018-Jul-06 20:31N 40°40' W 074°01'0 0.0
2018-Jul-06 20:00N 40°40' W 074°01'1 1.7
2018-Jul-06 19:30N 40°40' W 074°02'0 0.0
2018-Jul-06 19:00N 40°40' W 074°02'0 0.1
2018-Jul-06 18:30N 40°40' W 074°02'0 0.0
2018-Jul-06 18:00N 40°40' W 074°02'0 0.0
2018-Jul-06 17:30N 40°40' W 074°02'0 0.0
2018-Jul-06 17:00N 40°40' W 074°02'0 0.0
2018-Jul-06 16:31N 40°40' W 074°02'0 0.2
2018-Jul-06 16:00N 40°40' W 074°02'1 2.9
2018-Jul-06 15:30N 40°41' W 074°01'4 7.0
2018-Jul-06 15:00N 40°44' W 073°58'62 7.7
2018-Jul-06 06:53N 41°08' W 072°42'3 9.1
2018-Jul-06 06:30N 41°09' W 072°38'5 9.2
2018-Jul-06 06:00N 41°10' W 072°32'5 9.3
2018-Jul-06 05:31N 41°11' W 072°26'5 9.4
2018-Jul-06 05:00N 41°12' W 072°20'5 9.1
2018-Jul-06 04:27N 41°14' W 072°13'  
Track history (hours):
 
Tides and Currents Weather Stations Pressure Air Temp Water Temp Dewpoint Dewpoint Depression Visibility Wind Speed Wind Dir Waves Ship Positions

Elizabeth Anne

Owner: Vane Line Bunkering, Inc., Philadelphia, PA. More information available from US FCC via Universal Licensing System and Coast Guard Vessel Documentation Center.

Last reported at 2018-Jul-15 20:29 UTC. Time now 2018-Jul-15 20:50 UTC.
Position N 40°39' W 074°06'.

; draft 5 m.

Type: Tug. MMSI: 369008000.

Date/timePositionNaut miles runAvg speedWind from/ knotsBaromVisibWave heightAir tempDewpointWater temp
2018-Jul-15 20:29N 40°39' W 074°06'0 0.5
2018-Jul-15 20:00N 40°39' W 074°06'1 1.3
2018-Jul-15 19:30N 40°39' W 074°05'2 4.5
2018-Jul-15 19:00N 40°40' W 074°03'2 3.5
2018-Jul-15 18:30N 40°39' W 074°05'1 1.1
2018-Jul-15 18:00N 40°39' W 074°05'2 4.4
2018-Jul-15 17:30N 40°40' W 074°03'0 0.4
2018-Jul-15 17:00N 40°40' W 074°03'3 6.2
2018-Jul-15 16:30N 40°39' W 074°06'0 0.0
2018-Jul-15 16:00N 40°39' W 074°06'0 0.0
2018-Jul-15 15:30N 40°39' W 074°06'0 0.0
2018-Jul-15 14:59N 40°39' W 074°06'1 1.1
2018-Jul-15 14:30N 40°39' W 074°06'0 0.1
2018-Jul-15 14:00N 40°39' W 074°06'0 0.0
2018-Jul-15 13:30N 40°39' W 074°06'0 0.0
2018-Jul-15 13:00N 40°39' W 074°06'0 0.0
2018-Jul-15 12:30N 40°39' W 074°06'0 0.0
2018-Jul-15 12:00N 40°39' W 074°06'0 0.0
2018-Jul-15 11:30N 40°39' W 074°06'0 0.0
2018-Jul-15 11:00N 40°39' W 074°06'0 0.0
2018-Jul-15 10:30N 40°39' W 074°06'0 0.0
2018-Jul-15 10:00N 40°39' W 074°06'0 0.0
2018-Jul-15 09:31N 40°39' W 074°06'0 0.0
2018-Jul-15 09:00N 40°39' W 074°06'0 0.0
2018-Jul-15 08:30N 40°39' W 074°06'0 0.0
2018-Jul-15 08:01N 40°39' W 074°06'0 0.0
2018-Jul-15 07:30N 40°39' W 074°06'0 0.0
2018-Jul-15 07:01N 40°39' W 074°06'0 0.0
2018-Jul-15 06:31N 40°39' W 074°06'0 0.0
2018-Jul-15 06:01N 40°39' W 074°06'0 0.0
2018-Jul-15 05:30N 40°39' W 074°06'0 0.0
2018-Jul-15 05:01N 40°39' W 074°06'0 0.0
2018-Jul-15 04:29N 40°39' W 074°06'0 0.0
2018-Jul-15 04:00N 40°39' W 074°06'0 0.0
2018-Jul-15 03:30N 40°39' W 074°06'0 0.0
2018-Jul-15 03:00N 40°39' W 074°06'0 0.0
2018-Jul-15 02:25N 40°39' W 074°06'0 0.0
2018-Jul-15 02:01N 40°39' W 074°06'0 0.0
2018-Jul-15 01:31N 40°39' W 074°06'0 0.0
2018-Jul-15 01:00N 40°39' W 074°06'0 0.0
2018-Jul-15 00:31N 40°39' W 074°06'0 0.0
2018-Jul-15 00:01N 40°39' W 074°06'0 0.0
2018-Jul-14 23:31N 40°39' W 074°06'0 0.0
2018-Jul-14 23:01N 40°39' W 074°06'0 0.0
2018-Jul-14 22:31N 40°39' W 074°06'0 0.0
2018-Jul-14 22:01N 40°39' W 074°06'0 0.0
2018-Jul-14 21:31N 40°39' W 074°06'0 0.1
2018-Jul-14 21:00N 40°39' W 074°06'1 1.1
2018-Jul-14 20:31N 40°39' W 074°07'2 3.2
2018-Jul-14 20:01N 40°39' W 074°04'2 3.1
2018-Jul-14 19:31N 40°40' W 074°03'1 2.2
2018-Jul-14 19:01N 40°40' W 074°02'1 1.7
2018-Jul-14 18:30N 40°40' W 074°00'0 0.0
2018-Jul-14 18:00N 40°40' W 074°00'0 0.0
2018-Jul-14 17:30N 40°40' W 074°00'0 0.0
2018-Jul-14 17:00N 40°40' W 074°00'0 0.0
2018-Jul-14 16:30N 40°40' W 074°00'0 0.0
2018-Jul-14 16:01N 40°40' W 074°00'0 0.0
2018-Jul-14 15:30N 40°40' W 074°00'0 0.0
2018-Jul-14 15:01N 40°40' W 074°00'0 0.0
2018-Jul-14 14:31N 40°40' W 074°00'0 0.0
2018-Jul-14 13:30N 40°40' W 074°00'0 0.0
2018-Jul-14 13:01N 40°40' W 074°00'0 0.0
2018-Jul-14 12:30N 40°40' W 074°00'0 0.0
2018-Jul-14 12:01N 40°40' W 074°00'0 0.0
2018-Jul-14 11:31N 40°40' W 074°00'0 0.0
2018-Jul-14 11:01N 40°40' W 074°00'0 0.5
2018-Jul-14 10:31N 40°40' W 074°00'0 0.1
2018-Jul-14 10:01N 40°40' W 074°00'0 0.0
2018-Jul-14 09:30N 40°40' W 074°00'1 1.5
2018-Jul-14 09:00N 40°40' W 074°01'1 2.2
2018-Jul-14 08:31N 40°41' W 074°02'4 8.2
2018-Jul-14 08:01N 40°45' W 074°01'612.5
2018-Jul-14 07:30N 40°50' W 073°57'611.5
2018-Jul-14 07:00N 40°56' W 073°55'610.9
2018-Jul-14 06:27N 41°02' W 073°53'15 0.4
2018-Jul-12 15:27N 40°47' W 073°59'3 7.7
2018-Jul-12 15:01N 40°44' W 074°01'4 8.1
2018-Jul-12 14:31N 40°40' W 074°03'4 7.9
2018-Jul-12 14:00N 40°39' W 074°07'4 7.3
2018-Jul-12 13:30N 40°38' W 074°12'5 2.6
2018-Jul-12 11:44N 40°33' W 074°14'2 0.4
2018-Jul-12 06:11N 40°35' W 074°12'3 2.1
2018-Jul-12 04:43N 40°38' W 074°11'1 4.3
2018-Jul-12 04:27N 40°39' W 074°10'2 4.4
2018-Jul-12 04:01N 40°39' W 074°07'0 0.9
2018-Jul-12 03:31N 40°39' W 074°07'0 0.1
2018-Jul-12 03:01N 40°39' W 074°07'1 1.8
2018-Jul-12 02:31N 40°39' W 074°06'0 0.0
2018-Jul-12 02:01N 40°39' W 074°06'0 0.0
2018-Jul-12 01:31N 40°39' W 074°06'0 0.0
2018-Jul-12 01:00N 40°39' W 074°06'0 0.0
2018-Jul-12 00:30N 40°39' W 074°06'0 0.0
2018-Jul-12 00:01N 40°39' W 074°06'1 1.9
2018-Jul-11 23:30N 40°39' W 074°07'4 8.0
2018-Jul-11 23:00N 40°37' W 074°12'0 0.2
2018-Jul-11 20:50N 40°38' W 074°12'3 6.6
2018-Jul-11 20:27N 40°39' W 074°09'4 8.0
2018-Jul-11 20:01N 40°39' W 074°04'4 8.1
2018-Jul-11 19:31N 40°42' W 074°00'3 6.0
2018-Jul-11 19:00N 40°44' W 073°58'56 2.6
2018-Jul-10 21:14N 41°14' W 072°55'3 5.3
2018-Jul-10 20:38N 41°12' W 072°52'0 0.0
2018-Jul-10 14:00N 41°12' W 072°52'0 0.0
2018-Jul-10 13:29N 41°12' W 072°52'0 0.0
2018-Jul-10 13:00N 41°12' W 072°52'0 0.0
2018-Jul-10 12:30N 41°12' W 072°52'0 0.0
2018-Jul-10 12:00N 41°12' W 072°52'0 0.0
2018-Jul-10 11:30N 41°12' W 072°52'0 0.0
2018-Jul-10 11:00N 41°12' W 072°52'0 0.0
2018-Jul-10 10:29N 41°12' W 072°52'0 0.0
2018-Jul-10 09:54N 41°12' W 072°52'0 0.0
2018-Jul-10 09:28N 41°12' W 072°52'0 0.0
2018-Jul-10 08:54N 41°12' W 072°52'0 0.0
2018-Jul-10 08:12N 41°12' W 072°52'0 0.3
2018-Jul-10 07:59N 41°12' W 072°52'0 0.0
2018-Jul-10 00:00N 41°12' W 072°53'0 0.1
2018-Jul-09 23:30N 41°12' W 072°52'0 0.1
2018-Jul-09 22:53N 41°12' W 072°53'0 0.0
2018-Jul-09 22:30N 41°12' W 072°53'0 0.0
2018-Jul-09 21:58N 41°12' W 072°53'0 0.0
2018-Jul-09 21:28N 41°12' W 072°53'0 0.0
2018-Jul-09 21:00N 41°12' W 072°53'0 0.2
2018-Jul-09 20:30N 41°12' W 072°52'0 0.1
2018-Jul-09 20:00N 41°12' W 072°52'0 0.0
2018-Jul-09 19:29N 41°12' W 072°52'18 1.8
2018-Jul-09 09:27N 41°04' W 073°13'4 7.4
2018-Jul-09 08:58N 41°02' W 073°17'35 7.7
2018-Jul-09 04:27N 40°46' W 073°57'3 6.6
2018-Jul-09 04:01N 40°43' W 073°58'3 6.0
2018-Jul-09 03:31N 40°41' W 074°01'1 2.4
2018-Jul-09 03:01N 40°40' W 074°02'0 0.0
2018-Jul-09 02:30N 40°40' W 074°02'0 0.1
2018-Jul-09 02:01N 40°40' W 074°02'0 0.1
2018-Jul-09 01:31N 40°40' W 074°02'0 0.0
2018-Jul-09 01:01N 40°40' W 074°02'0 0.3
2018-Jul-09 00:31N 40°40' W 074°03'0 0.2
2018-Jul-09 00:00N 40°40' W 074°02'0 0.1
2018-Jul-08 23:31N 40°40' W 074°02'0 0.1
2018-Jul-08 23:01N 40°40' W 074°02'2 4.8
2018-Jul-08 22:30N 40°39' W 074°05'4 8.1
2018-Jul-08 22:00N 40°39' W 074°10'1 0.2
2018-Jul-08 16:42N 40°38' W 074°12'2 8.2
2018-Jul-08 16:30N 40°39' W 074°10'5 9.7
2018-Jul-08 16:00N 40°40' W 074°03'0 0.4
2018-Jul-08 15:30N 40°40' W 074°03'2 3.3
2018-Jul-08 15:00N 40°39' W 074°05'0 0.6
2018-Jul-08 14:30N 40°39' W 074°05'1 0.3
2018-Jul-08 12:26N 40°39' W 074°06'0 0.0
2018-Jul-08 11:59N 40°39' W 074°06'0 0.0
2018-Jul-08 11:29N 40°39' W 074°06'0 0.0
2018-Jul-08 10:59N 40°39' W 074°06'0 0.0
2018-Jul-08 10:29N 40°39' W 074°06'0 0.0
2018-Jul-08 09:59N 40°39' W 074°06'0 0.0
2018-Jul-08 09:31N 40°39' W 074°06'0 0.0
2018-Jul-08 09:00N 40°39' W 074°06'2 4.1
2018-Jul-08 08:30N 40°40' W 074°03'1 1.9
2018-Jul-08 08:01N 40°41' W 074°03'3 5.6
2018-Jul-08 07:30N 40°39' W 074°06'2 4.6
2018-Jul-08 07:01N 40°40' W 074°08'1 1.5
2018-Jul-08 06:31N 40°41' W 074°09'3 5.9
2018-Jul-08 06:01N 40°39' W 074°11'5 1.7
2018-Jul-08 03:12N 40°34' W 074°13'4 9.2
2018-Jul-08 02:46N 40°38' W 074°12'2 8.6
2018-Jul-08 02:30N 40°39' W 074°10'4 7.8
2018-Jul-08 02:01N 40°39' W 074°05'3 5.6
2018-Jul-08 01:31N 40°40' W 074°01'0 0.1
2018-Jul-08 01:01N 40°40' W 074°01'1 1.5
2018-Jul-08 00:31N 40°40' W 074°00'0 0.0
2018-Jul-08 00:01N 40°40' W 074°00'0 0.0
2018-Jul-07 23:30N 40°40' W 074°00'0 0.0
2018-Jul-07 23:01N 40°40' W 074°00'0 0.0
2018-Jul-07 22:30N 40°40' W 074°00'0 0.0
2018-Jul-07 22:00N 40°40' W 074°00'0 0.0
2018-Jul-07 21:31N 40°40' W 074°00'0 0.0
2018-Jul-07 21:00N 40°40' W 074°00'0 0.3
2018-Jul-07 20:30N 40°40' W 074°00'4 7.4
2018-Jul-07 20:00N 40°39' W 074°05'3 5.6
2018-Jul-07 19:30N 40°40' W 074°09'1 2.0
2018-Jul-07 19:01N 40°41' W 074°09'1 2.5
2018-Jul-07 18:31N 40°40' W 074°09'2 3.4
2018-Jul-07 18:00N 40°39' W 074°06'1 1.2
2018-Jul-07 17:30N 40°39' W 074°06'0 0.0
2018-Jul-07 17:00N 40°39' W 074°06'0 0.0
2018-Jul-07 16:30N 40°39' W 074°06'0 0.0
2018-Jul-07 16:00N 40°39' W 074°06'0 0.0
2018-Jul-07 15:30N 40°39' W 074°06'0 0.0
2018-Jul-07 15:00N 40°39' W 074°06'0 0.0
2018-Jul-07 14:31N 40°39' W 074°06'0 0.9
2018-Jul-07 14:00N 40°39' W 074°06'1 1.7
2018-Jul-07 13:30N 40°39' W 074°07'2 4.6
2018-Jul-07 13:00N 40°41' W 074°09'1 0.1
2018-Jul-07 00:31N 40°41' W 074°09'0 1.7
2018-Jul-07 00:25N 40°41' W 074°09'0 0.6
2018-Jul-07 00:00N 40°41' W 074°09'1 2.4
2018-Jul-06 23:30N 40°40' W 074°08'3 5.6
2018-Jul-06 23:00N 40°39' W 074°05'4 7.6
2018-Jul-06 22:31N 40°40' W 074°00'1 1.4
2018-Jul-06 22:00N 40°40' W 074°01'0 0.0
2018-Jul-06 21:30N 40°40' W 074°01'0 0.0
2018-Jul-06 21:00N 40°40' W 074°01'0 0.1
2018-Jul-06 20:31N 40°40' W 074°01'0 0.0
2018-Jul-06 20:00N 40°40' W 074°01'1 1.7
2018-Jul-06 19:30N 40°40' W 074°02'0 0.0
2018-Jul-06 19:00N 40°40' W 074°02'0 0.1
2018-Jul-06 18:30N 40°40' W 074°02'0 0.0
2018-Jul-06 18:00N 40°40' W 074°02'0 0.0
2018-Jul-06 17:30N 40°40' W 074°02'0 0.0
2018-Jul-06 17:00N 40°40' W 074°02'0 0.0
2018-Jul-06 16:31N 40°40' W 074°02'0 0.2
2018-Jul-06 16:00N 40°40' W 074°02'1 2.9
2018-Jul-06 15:30N 40°41' W 074°01'4 7.0
2018-Jul-06 15:00N 40°44' W 073°58'62 7.7
2018-Jul-06 06:53N 41°08' W 072°42'3 9.1
2018-Jul-06 06:30N 41°09' W 072°38'5 9.2
2018-Jul-06 06:00N 41°10' W 072°32'5 9.3
2018-Jul-06 05:31N 41°11' W 072°26'5 9.4
2018-Jul-06 05:00N 41°12' W 072°20'5 9.1
2018-Jul-06 04:27N 41°14' W 072°13'  

Dump ship's entire track history